La Calamine, Belgium
Current Conditions -  °F | °C
As of 5:50 AM on Friday 31 Oct 2014 (Local Time) from ETNG Reporting Station
Broken Clouds Broken Clouds  
Wind Chill: 48°   Ceiling: 10000
Heat Index: 48°   Visibility: 5mi
Dew Point: 48°   Wind: 1mph
Humidity: 100%   Direction: 80°E
Pressure: 30.18"   Gusts: NA
Location:  50.72°N, 6.01°E
Report Text: ETNG 310450Z 08001KT 8000 BKN100 09/09 Q1022
Loading
Personal Weather Stations






























Interactive Weather Map
Tropical Storm Tracking
New forecast layout! Learn more

10-Day Weather Forecast

Advertisements
Track Severe Weather on mobile